sensor_id;sensor_type;location;lat;lon;timestamp;P1;durP1;ratioP1;P2;durP2;ratioP2
13309;SDS011;6723;48.256;16.402;2023-12-20T00:01:39;32.07;;;22.70;;
13309;SDS011;6723;48.256;16.402;2023-12-20T00:04:05;31.50;;;22.37;;
13309;SDS011;6723;48.256;16.402;2023-12-20T00:06:31;31.17;;;22.13;;
13309;SDS011;6723;48.256;16.402;2023-12-20T00:08:57;31.13;;;22.53;;
13309;SDS011;6723;48.256;16.402;2023-12-20T00:11:23;31.67;;;21.97;;
13309;SDS011;6723;48.256;16.402;2023-12-20T00:13:49;32.87;;;22.27;;
13309;SDS011;6723;48.256;16.402;2023-12-20T00:16:16;30.73;;;21.07;;
13309;SDS011;6723;48.256;16.402;2023-12-20T00:18:41;32.43;;;22.50;;
13309;SDS011;6723;48.256;16.402;2023-12-20T00:21:07;30.53;;;21.60;;
13309;SDS011;6723;48.256;16.402;2023-12-20T00:23:33;28.60;;;21.20;;
13309;SDS011;6723;48.256;16.402;2023-12-20T00:25:59;35.43;;;21.87;;
13309;SDS011;6723;48.256;16.402;2023-12-20T00:28:25;31.47;;;21.10;;
13309;SDS011;6723;48.256;16.402;2023-12-20T00:30:51;28.73;;;20.90;;
13309;SDS011;6723;48.256;16.402;2023-12-20T00:33:16;28.20;;;21.07;;
13309;SDS011;6723;48.256;16.402;2023-12-20T00:35:42;29.83;;;20.33;;
13309;SDS011;6723;48.256;16.402;2023-12-20T00:38:08;29.50;;;21.07;;
13309;SDS011;6723;48.256;16.402;2023-12-20T00:40:35;30.97;;;20.90;;
13309;SDS011;6723;48.256;16.402;2023-12-20T00:43:00;31.97;;;21.07;;
13309;SDS011;6723;48.256;16.402;2023-12-20T00:45:26;29.63;;;21.20;;
13309;SDS011;6723;48.256;16.402;2023-12-20T00:47:52;30.03;;;21.43;;
13309;SDS011;6723;48.256;16.402;2023-12-20T00:50:18;33.40;;;22.57;;
13309;SDS011;6723;48.256;16.402;2023-12-20T00:52:44;33.83;;;22.93;;
13309;SDS011;6723;48.256;16.402;2023-12-20T00:55:11;33.33;;;23.13;;
13309;SDS011;6723;48.256;16.402;2023-12-20T00:57:37;38.70;;;24.23;;
13309;SDS011;6723;48.256;16.402;2023-12-20T01:00:03;35.60;;;23.60;;
13309;SDS011;6723;48.256;16.402;2023-12-20T01:02:29;34.70;;;22.93;;
13309;SDS011;6723;48.256;16.402;2023-12-20T01:04:55;37.17;;;24.90;;
13309;SDS011;6723;48.256;16.402;2023-12-20T01:07:21;34.20;;;23.77;;
13309;SDS011;6723;48.256;16.402;2023-12-20T01:09:47;34.57;;;24.20;;
13309;SDS011;6723;48.256;16.402;2023-12-20T01:12:12;34.77;;;23.83;;
13309;SDS011;6723;48.256;16.402;2023-12-20T01:14:38;35.07;;;23.57;;
13309;SDS011;6723;48.256;16.402;2023-12-20T01:17:04;36.63;;;24.77;;
13309;SDS011;6723;48.256;16.402;2023-12-20T01:19:30;37.50;;;24.67;;
13309;SDS011;6723;48.256;16.402;2023-12-20T01:21:56;39.43;;;24.60;;
13309;SDS011;6723;48.256;16.402;2023-12-20T01:24:22;41.13;;;25.10;;
13309;SDS011;6723;48.256;16.402;2023-12-20T01:26:48;36.83;;;24.10;;
13309;SDS011;6723;48.256;16.402;2023-12-20T01:29:14;34.03;;;23.33;;
13309;SDS011;6723;48.256;16.402;2023-12-20T01:31:41;35.93;;;24.53;;
13309;SDS011;6723;48.256;16.402;2023-12-20T01:34:07;35.10;;;23.63;;
13309;SDS011;6723;48.256;16.402;2023-12-20T01:36:33;35.27;;;23.57;;
13309;SDS011;6723;48.256;16.402;2023-12-20T01:38:58;34.70;;;24.27;;
13309;SDS011;6723;48.256;16.402;2023-12-20T01:41:24;37.37;;;24.17;;
13309;SDS011;6723;48.256;16.402;2023-12-20T01:43:50;33.97;;;23.43;;
13309;SDS011;6723;48.256;16.402;2023-12-20T01:46:19;36.90;;;23.90;;
13309;SDS011;6723;48.256;16.402;2023-12-20T01:48:47;32.90;;;22.57;;
13309;SDS011;6723;48.256;16.402;2023-12-20T01:51:13;34.43;;;24.27;;
13309;SDS011;6723;48.256;16.402;2023-12-20T01:53:40;34.80;;;23.27;;
13309;SDS011;6723;48.256;16.402;2023-12-20T01:56:09;33.27;;;22.63;;
13309;SDS011;6723;48.256;16.402;2023-12-20T01:58:39;38.03;;;24.13;;
13309;SDS011;6723;48.256;16.402;2023-12-20T02:01:11;36.30;;;23.13;;
13309;SDS011;6723;48.256;16.402;2023-12-20T02:03:39;32.97;;;22.43;;
13309;SDS011;6723;48.256;16.402;2023-12-20T02:06:07;34.77;;;23.93;;
13309;SDS011;6723;48.256;16.402;2023-12-20T02:08:33;34.17;;;22.87;;
13309;SDS011;6723;48.256;16.402;2023-12-20T02:11:00;34.37;;;23.87;;
13309;SDS011;6723;48.256;16.402;2023-12-20T02:13:26;33.43;;;23.40;;
13309;SDS011;6723;48.256;16.402;2023-12-20T02:15:52;33.67;;;22.57;;
13309;SDS011;6723;48.256;16.402;2023-12-20T02:18:20;34.47;;;22.97;;
13309;SDS011;6723;48.256;16.402;2023-12-20T02:20:46;31.50;;;22.33;;
13309;SDS011;6723;48.256;16.402;2023-12-20T02:23:12;32.57;;;21.97;;
13309;SDS011;6723;48.256;16.402;2023-12-20T02:25:38;32.13;;;22.20;;
13309;SDS011;6723;48.256;16.402;2023-12-20T02:28:04;33.90;;;22.17;;
13309;SDS011;6723;48.256;16.402;2023-12-20T02:30:33;32.50;;;21.67;;
13309;SDS011;6723;48.256;16.402;2023-12-20T02:33:00;33.77;;;22.60;;
13309;SDS011;6723;48.256;16.402;2023-12-20T02:35:28;33.07;;;22.50;;
13309;SDS011;6723;48.256;16.402;2023-12-20T02:37:54;35.17;;;23.23;;
13309;SDS011;6723;48.256;16.402;2023-12-20T02:40:20;37.27;;;24.43;;
13309;SDS011;6723;48.256;16.402;2023-12-20T02:42:46;36.30;;;24.17;;
13309;SDS011;6723;48.256;16.402;2023-12-20T02:45:12;35.57;;;24.07;;
13309;SDS011;6723;48.256;16.402;2023-12-20T02:47:37;36.37;;;23.50;;
13309;SDS011;6723;48.256;16.402;2023-12-20T02:50:03;33.37;;;23.23;;
13309;SDS011;6723;48.256;16.402;2023-12-20T02:52:29;35.37;;;23.53;;
13309;SDS011;6723;48.256;16.402;2023-12-20T02:54:55;34.63;;;24.03;;
13309;SDS011;6723;48.256;16.402;2023-12-20T02:57:21;38.10;;;22.70;;
13309;SDS011;6723;48.256;16.402;2023-12-20T02:59:47;35.70;;;23.87;;
13309;SDS011;6723;48.256;16.402;2023-12-20T03:02:13;35.97;;;23.03;;
13309;SDS011;6723;48.256;16.402;2023-12-20T03:04:39;36.53;;;23.90;;
13309;SDS011;6723;48.256;16.402;2023-12-20T03:07:04;34.67;;;23.73;;
13309;SDS011;6723;48.256;16.402;2023-12-20T03:09:30;34.27;;;23.77;;
13309;SDS011;6723;48.256;16.402;2023-12-20T03:11:56;38.30;;;23.50;;
13309;SDS011;6723;48.256;16.402;2023-12-20T03:14:22;36.77;;;23.83;;
13309;SDS011;6723;48.256;16.402;2023-12-20T03:16:51;36.73;;;23.67;;
13309;SDS011;6723;48.256;16.402;2023-12-20T03:19:17;36.53;;;24.27;;
13309;SDS011;6723;48.256;16.402;2023-12-20T03:21:44;37.63;;;24.63;;
13309;SDS011;6723;48.256;16.402;2023-12-20T03:24:10;38.97;;;25.50;;
13309;SDS011;6723;48.256;16.402;2023-12-20T03:26:36;38.20;;;25.03;;
13309;SDS011;6723;48.256;16.402;2023-12-20T03:29:02;43.20;;;25.57;;
13309;SDS011;6723;48.256;16.402;2023-12-20T03:31:28;38.40;;;25.33;;
13309;SDS011;6723;48.256;16.402;2023-12-20T03:33:54;37.00;;;24.23;;
13309;SDS011;6723;48.256;16.402;2023-12-20T03:36:20;37.27;;;24.27;;
13309;SDS011;6723;48.256;16.402;2023-12-20T03:38:46;38.50;;;24.07;;
13309;SDS011;6723;48.256;16.402;2023-12-20T03:41:12;38.03;;;24.47;;
13309;SDS011;6723;48.256;16.402;2023-12-20T03:43:38;33.73;;;23.40;;
13309;SDS011;6723;48.256;16.402;2023-12-20T03:46:04;34.10;;;23.63;;
13309;SDS011;6723;48.256;16.402;2023-12-20T03:48:33;35.30;;;23.87;;
13309;SDS011;6723;48.256;16.402;2023-12-20T03:50:59;35.07;;;23.83;;
13309;SDS011;6723;48.256;16.402;2023-12-20T03:53:25;31.57;;;21.17;;
13309;SDS011;6723;48.256;16.402;2023-12-20T03:55:51;36.07;;;22.57;;
13309;SDS011;6723;48.256;16.402;2023-12-20T03:58:16;31.97;;;22.77;;
13309;SDS011;6723;48.256;16.402;2023-12-20T04:00:42;33.30;;;21.77;;
13309;SDS011;6723;48.256;16.402;2023-12-20T04:03:08;29.20;;;20.97;;
13309;SDS011;6723;48.256;16.402;2023-12-20T04:05:34;29.57;;;21.47;;
13309;SDS011;6723;48.256;16.402;2023-12-20T04:08:01;31.37;;;21.60;;
13309;SDS011;6723;48.256;16.402;2023-12-20T04:10:27;33.77;;;22.47;;
13309;SDS011;6723;48.256;16.402;2023-12-20T04:12:53;33.53;;;22.00;;
13309;SDS011;6723;48.256;16.402;2023-12-20T04:15:20;32.63;;;22.27;;
13309;SDS011;6723;48.256;16.402;2023-12-20T04:17:46;34.27;;;22.43;;
13309;SDS011;6723;48.256;16.402;2023-12-20T04:20:12;33.90;;;22.43;;
13309;SDS011;6723;48.256;16.402;2023-12-20T04:22:38;31.97;;;22.30;;
13309;SDS011;6723;48.256;16.402;2023-12-20T04:25:03;34.07;;;22.73;;
13309;SDS011;6723;48.256;16.402;2023-12-20T04:27:30;33.27;;;22.17;;
13309;SDS011;6723;48.256;16.402;2023-12-20T04:29:56;31.37;;;22.10;;
13309;SDS011;6723;48.256;16.402;2023-12-20T04:32:22;31.73;;;21.63;;
13309;SDS011;6723;48.256;16.402;2023-12-20T04:34:48;29.53;;;21.57;;
13309;SDS011;6723;48.256;16.402;2023-12-20T04:37:13;32.03;;;22.10;;
13309;SDS011;6723;48.256;16.402;2023-12-20T04:39:39;32.03;;;21.43;;
13309;SDS011;6723;48.256;16.402;2023-12-20T04:42:06;30.27;;;22.13;;
13309;SDS011;6723;48.256;16.402;2023-12-20T04:44:34;34.63;;;22.73;;
13309;SDS011;6723;48.256;16.402;2023-12-20T04:47:05;29.00;;;20.20;;
13309;SDS011;6723;48.256;16.402;2023-12-20T04:49:31;33.83;;;23.03;;
13309;SDS011;6723;48.256;16.402;2023-12-20T04:51:57;31.07;;;23.07;;
13309;SDS011;6723;48.256;16.402;2023-12-20T04:54:23;35.30;;;24.63;;
13309;SDS011;6723;48.256;16.402;2023-12-20T04:56:49;33.70;;;23.80;;
13309;SDS011;6723;48.256;16.402;2023-12-20T04:59:15;30.93;;;22.50;;
13309;SDS011;6723;48.256;16.402;2023-12-20T05:01:41;30.03;;;22.20;;
13309;SDS011;6723;48.256;16.402;2023-12-20T05:04:06;30.63;;;22.83;;
13309;SDS011;6723;48.256;16.402;2023-12-20T05:06:32;30.80;;;22.40;;
13309;SDS011;6723;48.256;16.402;2023-12-20T05:08:58;31.83;;;23.60;;
13309;SDS011;6723;48.256;16.402;2023-12-20T05:11:24;31.90;;;21.57;;
13309;SDS011;6723;48.256;16.402;2023-12-20T05:13:50;31.40;;;23.20;;
13309;SDS011;6723;48.256;16.402;2023-12-20T05:16:15;30.37;;;21.20;;
13309;SDS011;6723;48.256;16.402;2023-12-20T05:18:47;31.40;;;22.40;;
13309;SDS011;6723;48.256;16.402;2023-12-20T05:21:15;31.27;;;22.60;;
13309;SDS011;6723;48.256;16.402;2023-12-20T05:23:41;30.83;;;22.07;;
13309;SDS011;6723;48.256;16.402;2023-12-20T05:26:07;31.70;;;21.77;;
13309;SDS011;6723;48.256;16.402;2023-12-20T05:28:33;31.07;;;20.73;;
13309;SDS011;6723;48.256;16.402;2023-12-20T05:30:59;28.83;;;20.90;;
13309;SDS011;6723;48.256;16.402;2023-12-20T05:33:25;28.27;;;20.37;;
13309;SDS011;6723;48.256;16.402;2023-12-20T05:35:51;28.60;;;20.70;;
13309;SDS011;6723;48.256;16.402;2023-12-20T05:38:17;28.43;;;21.07;;
13309;SDS011;6723;48.256;16.402;2023-12-20T05:40:43;27.23;;;20.43;;
13309;SDS011;6723;48.256;16.402;2023-12-20T05:43:08;28.53;;;20.57;;
13309;SDS011;6723;48.256;16.402;2023-12-20T05:45:37;30.30;;;20.80;;
13309;SDS011;6723;48.256;16.402;2023-12-20T05:48:03;31.50;;;20.17;;
13309;SDS011;6723;48.256;16.402;2023-12-20T05:50:30;29.53;;;21.07;;
13309;SDS011;6723;48.256;16.402;2023-12-20T05:52:56;30.80;;;21.20;;
13309;SDS011;6723;48.256;16.402;2023-12-20T05:55:22;34.57;;;21.87;;
13309;SDS011;6723;48.256;16.402;2023-12-20T05:57:47;33.17;;;20.63;;
13309;SDS011;6723;48.256;16.402;2023-12-20T06:00:13;30.10;;;21.37;;
13309;SDS011;6723;48.256;16.402;2023-12-20T06:02:40;31.57;;;21.00;;
13309;SDS011;6723;48.256;16.402;2023-12-20T06:05:07;33.63;;;20.57;;
13309;SDS011;6723;48.256;16.402;2023-12-20T06:07:33;31.43;;;20.80;;
13309;SDS011;6723;48.256;16.402;2023-12-20T06:09:58;29.17;;;21.00;;
13309;SDS011;6723;48.256;16.402;2023-12-20T06:12:24;26.33;;;19.43;;
13309;SDS011;6723;48.256;16.402;2023-12-20T06:14:52;28.37;;;19.47;;
13309;SDS011;6723;48.256;16.402;2023-12-20T06:17:18;30.07;;;20.50;;
13309;SDS011;6723;48.256;16.402;2023-12-20T06:19:43;28.40;;;19.37;;
13309;SDS011;6723;48.256;16.402;2023-12-20T06:22:13;28.37;;;19.23;;
13309;SDS011;6723;48.256;16.402;2023-12-20T06:24:39;19.80;;;13.83;;
13309;SDS011;6723;48.256;16.402;2023-12-20T06:27:05;19.23;;;12.50;;
13309;SDS011;6723;48.256;16.402;2023-12-20T06:29:31;27.53;;;16.43;;
13309;SDS011;6723;48.256;16.402;2023-12-20T06:31:57;11.70;;;9.13;;
13309;SDS011;6723;48.256;16.402;2023-12-20T06:34:23;16.10;;;12.23;;
13309;SDS011;6723;48.256;16.402;2023-12-20T06:36:51;6.13;;;5.40;;
13309;SDS011;6723;48.256;16.402;2023-12-20T06:39:17;8.17;;;5.47;;
13309;SDS011;6723;48.256;16.402;2023-12-20T06:41:43;4.63;;;3.40;;
13309;SDS011;6723;48.256;16.402;2023-12-20T06:44:08;3.37;;;2.60;;
13309;SDS011;6723;48.256;16.402;2023-12-20T06:46:34;4.70;;;3.07;;
13309;SDS011;6723;48.256;16.402;2023-12-20T06:49:00;4.10;;;2.83;;
13309;SDS011;6723;48.256;16.402;2023-12-20T06:51:26;3.03;;;2.43;;
13309;SDS011;6723;48.256;16.402;2023-12-20T06:53:52;4.30;;;2.63;;
13309;SDS011;6723;48.256;16.402;2023-12-20T06:56:18;4.20;;;2.73;;
13309;SDS011;6723;48.256;16.402;2023-12-20T06:58:44;3.30;;;2.30;;
13309;SDS011;6723;48.256;16.402;2023-12-20T07:01:11;2.70;;;2.40;;
13309;SDS011;6723;48.256;16.402;2023-12-20T07:03:37;2.40;;;2.20;;
13309;SDS011;6723;48.256;16.402;2023-12-20T07:06:03;3.40;;;2.20;;
13309;SDS011;6723;48.256;16.402;2023-12-20T07:08:29;2.47;;;2.23;;
13309;SDS011;6723;48.256;16.402;2023-12-20T07:10:55;4.87;;;2.50;;
13309;SDS011;6723;48.256;16.402;2023-12-20T07:13:21;3.13;;;2.20;;
13309;SDS011;6723;48.256;16.402;2023-12-20T07:15:48;3.20;;;2.30;;
13309;SDS011;6723;48.256;16.402;2023-12-20T07:18:14;4.20;;;2.70;;
13309;SDS011;6723;48.256;16.402;2023-12-20T07:20:40;3.87;;;2.60;;
13309;SDS011;6723;48.256;16.402;2023-12-20T07:23:05;3.57;;;2.80;;
13309;SDS011;6723;48.256;16.402;2023-12-20T07:25:31;3.97;;;2.70;;
13309;SDS011;6723;48.256;16.402;2023-12-20T07:28:00;3.47;;;2.83;;
13309;SDS011;6723;48.256;16.402;2023-12-20T07:30:26;4.83;;;2.70;;
13309;SDS011;6723;48.256;16.402;2023-12-20T07:32:52;4.03;;;2.90;;
13309;SDS011;6723;48.256;16.402;2023-12-20T07:35:18;4.97;;;3.03;;
13309;SDS011;6723;48.256;16.402;2023-12-20T07:37:44;5.20;;;3.07;;
13309;SDS011;6723;48.256;16.402;2023-12-20T07:40:09;4.60;;;2.60;;
13309;SDS011;6723;48.256;16.402;2023-12-20T07:42:35;4.50;;;2.93;;
13309;SDS011;6723;48.256;16.402;2023-12-20T07:45:01;3.80;;;2.80;;
13309;SDS011;6723;48.256;16.402;2023-12-20T07:47:28;5.60;;;3.43;;
13309;SDS011;6723;48.256;16.402;2023-12-20T07:49:53;3.63;;;3.23;;
13309;SDS011;6723;48.256;16.402;2023-12-20T07:52:19;5.40;;;3.50;;
13309;SDS011;6723;48.256;16.402;2023-12-20T07:54:47;4.47;;;3.50;;
13309;SDS011;6723;48.256;16.402;2023-12-20T07:57:13;5.57;;;3.67;;
13309;SDS011;6723;48.256;16.402;2023-12-20T07:59:39;4.53;;;3.50;;
13309;SDS011;6723;48.256;16.402;2023-12-20T08:02:05;7.10;;;3.07;;
13309;SDS011;6723;48.256;16.402;2023-12-20T08:04:32;4.67;;;3.60;;
13309;SDS011;6723;48.256;16.402;2023-12-20T08:06:57;3.97;;;2.70;;
13309;SDS011;6723;48.256;16.402;2023-12-20T08:09:25;3.63;;;2.27;;
13309;SDS011;6723;48.256;16.402;2023-12-20T08:11:51;4.40;;;2.33;;
13309;SDS011;6723;48.256;16.402;2023-12-20T08:14:17;6.60;;;2.43;;
13309;SDS011;6723;48.256;16.402;2023-12-20T08:16:43;2.93;;;2.10;;
13309;SDS011;6723;48.256;16.402;2023-12-20T08:19:08;3.70;;;2.43;;
13309;SDS011;6723;48.256;16.402;2023-12-20T08:21:34;2.90;;;2.10;;
13309;SDS011;6723;48.256;16.402;2023-12-20T08:24:00;2.20;;;1.70;;
13309;SDS011;6723;48.256;16.402;2023-12-20T08:26:26;3.00;;;2.07;;
13309;SDS011;6723;48.256;16.402;2023-12-20T08:28:52;3.23;;;2.00;;
13309;SDS011;6723;48.256;16.402;2023-12-20T08:31:18;3.63;;;2.03;;
13309;SDS011;6723;48.256;16.402;2023-12-20T08:33:45;2.60;;;2.33;;
13309;SDS011;6723;48.256;16.402;2023-12-20T08:36:12;2.30;;;2.03;;
13309;SDS011;6723;48.256;16.402;2023-12-20T08:38:38;4.43;;;2.60;;
13309;SDS011;6723;48.256;16.402;2023-12-20T08:41:04;3.20;;;2.50;;
13309;SDS011;6723;48.256;16.402;2023-12-20T08:43:30;3.70;;;2.10;;
13309;SDS011;6723;48.256;16.402;2023-12-20T08:45:57;3.63;;;2.00;;
13309;SDS011;6723;48.256;16.402;2023-12-20T08:48:22;3.57;;;2.40;;
13309;SDS011;6723;48.256;16.402;2023-12-20T08:50:48;4.17;;;2.37;;
13309;SDS011;6723;48.256;16.402;2023-12-20T08:53:15;4.17;;;2.40;;
13309;SDS011;6723;48.256;16.402;2023-12-20T08:55:42;3.77;;;2.50;;
13309;SDS011;6723;48.256;16.402;2023-12-20T08:58:07;3.00;;;2.23;;
13309;SDS011;6723;48.256;16.402;2023-12-20T09:00:34;4.73;;;2.60;;
13309;SDS011;6723;48.256;16.402;2023-12-20T09:03:01;3.50;;;2.67;;
13309;SDS011;6723;48.256;16.402;2023-12-20T09:05:27;4.23;;;2.70;;
13309;SDS011;6723;48.256;16.402;2023-12-20T09:07:53;4.87;;;2.60;;
13309;SDS011;6723;48.256;16.402;2023-12-20T09:10:19;3.27;;;2.70;;
13309;SDS011;6723;48.256;16.402;2023-12-20T09:12:50;2.40;;;1.97;;
13309;SDS011;6723;48.256;16.402;2023-12-20T09:15:21;3.73;;;2.03;;
13309;SDS011;6723;48.256;16.402;2023-12-20T09:17:50;3.53;;;2.23;;
13309;SDS011;6723;48.256;16.402;2023-12-20T09:20:16;3.23;;;2.43;;
13309;SDS011;6723;48.256;16.402;2023-12-20T09:22:42;3.07;;;2.40;;
13309;SDS011;6723;48.256;16.402;2023-12-20T09:25:09;3.10;;;2.67;;
13309;SDS011;6723;48.256;16.402;2023-12-20T09:27:36;5.70;;;2.70;;
13309;SDS011;6723;48.256;16.402;2023-12-20T09:30:02;2.83;;;2.13;;
13309;SDS011;6723;48.256;16.402;2023-12-20T09:32:30;3.13;;;2.40;;
13309;SDS011;6723;48.256;16.402;2023-12-20T09:34:56;3.03;;;2.30;;
13309;SDS011;6723;48.256;16.402;2023-12-20T09:37:22;2.73;;;2.23;;
13309;SDS011;6723;48.256;16.402;2023-12-20T09:39:51;2.30;;;2.10;;
13309;SDS011;6723;48.256;16.402;2023-12-20T09:42:17;2.87;;;2.00;;
13309;SDS011;6723;48.256;16.402;2023-12-20T09:45:09;2.30;;;1.80;;
13309;SDS011;6723;48.256;16.402;2023-12-20T09:47:37;3.20;;;2.10;;
13309;SDS011;6723;48.256;16.402;2023-12-20T09:50:02;2.03;;;1.83;;
13309;SDS011;6723;48.256;16.402;2023-12-20T09:52:28;2.43;;;2.10;;
13309;SDS011;6723;48.256;16.402;2023-12-20T09:54:55;4.87;;;2.03;;
13309;SDS011;6723;48.256;16.402;2023-12-20T09:57:22;2.13;;;1.80;;
13309;SDS011;6723;48.256;16.402;2023-12-20T09:59:47;2.47;;;1.77;;
13309;SDS011;6723;48.256;16.402;2023-12-20T10:02:13;2.87;;;2.10;;
13309;SDS011;6723;48.256;16.402;2023-12-20T10:04:46;3.27;;;2.00;;
13309;SDS011;6723;48.256;16.402;2023-12-20T10:07:13;3.20;;;2.23;;
13309;SDS011;6723;48.256;16.402;2023-12-20T10:09:38;3.67;;;1.90;;
13309;SDS011;6723;48.256;16.402;2023-12-20T10:12:05;1.90;;;1.70;;
13309;SDS011;6723;48.256;16.402;2023-12-20T10:14:32;3.30;;;1.70;;
13309;SDS011;6723;48.256;16.402;2023-12-20T10:17:04;2.00;;;1.80;;
13309;SDS011;6723;48.256;16.402;2023-12-20T10:19:31;2.40;;;1.80;;
13309;SDS011;6723;48.256;16.402;2023-12-20T10:22:00;3.23;;;2.10;;
13309;SDS011;6723;48.256;16.402;2023-12-20T10:24:29;3.20;;;1.70;;
13309;SDS011;6723;48.256;16.402;2023-12-20T10:27:04;2.47;;;2.00;;
13309;SDS011;6723;48.256;16.402;2023-12-20T10:29:31;3.07;;;1.90;;
13309;SDS011;6723;48.256;16.402;2023-12-20T10:31:58;2.00;;;1.73;;
13309;SDS011;6723;48.256;16.402;2023-12-20T10:34:24;2.17;;;1.77;;
13309;SDS011;6723;48.256;16.402;2023-12-20T10:36:50;2.50;;;2.30;;
13309;SDS011;6723;48.256;16.402;2023-12-20T10:39:16;2.20;;;2.00;;
13309;SDS011;6723;48.256;16.402;2023-12-20T10:41:45;2.77;;;2.10;;
13309;SDS011;6723;48.256;16.402;2023-12-20T10:44:12;2.30;;;2.10;;
13309;SDS011;6723;48.256;16.402;2023-12-20T10:46:39;2.37;;;2.10;;
13309;SDS011;6723;48.256;16.402;2023-12-20T10:49:06;2.60;;;2.20;;
13309;SDS011;6723;48.256;16.402;2023-12-20T10:51:33;2.60;;;2.27;;
13309;SDS011;6723;48.256;16.402;2023-12-20T10:54:01;2.90;;;2.20;;
13309;SDS011;6723;48.256;16.402;2023-12-20T10:56:27;3.33;;;2.33;;
13309;SDS011;6723;48.256;16.402;2023-12-20T10:58:58;2.60;;;2.40;;
13309;SDS011;6723;48.256;16.402;2023-12-20T11:01:28;2.33;;;2.10;;
13309;SDS011;6723;48.256;16.402;2023-12-20T11:03:55;2.73;;;2.17;;
13309;SDS011;6723;48.256;16.402;2023-12-20T11:06:40;3.03;;;2.57;;
13309;SDS011;6723;48.256;16.402;2023-12-20T11:09:17;2.60;;;2.10;;
13309;SDS011;6723;48.256;16.402;2023-12-20T11:17:06;2.60;;;1.97;;
13309;SDS011;6723;48.256;16.402;2023-12-20T11:22:18;2.53;;;1.97;;
13309;SDS011;6723;48.256;16.402;2023-12-20T11:24:48;2.30;;;2.00;;
13309;SDS011;6723;48.256;16.402;2023-12-20T11:27:15;3.70;;;2.10;;
13309;SDS011;6723;48.256;16.402;2023-12-20T11:29:41;4.10;;;2.10;;
13309;SDS011;6723;48.256;16.402;2023-12-20T11:35:00;4.17;;;1.83;;
13309;SDS011;6723;48.256;16.402;2023-12-20T11:37:35;3.20;;;2.23;;
13309;SDS011;6723;48.256;16.402;2023-12-20T11:40:03;2.60;;;2.27;;
13309;SDS011;6723;48.256;16.402;2023-12-20T11:42:38;3.00;;;2.47;;
13309;SDS011;6723;48.256;16.402;2023-12-20T11:45:09;2.33;;;2.13;;
13309;SDS011;6723;48.256;16.402;2023-12-20T11:47:35;2.50;;;2.30;;
13309;SDS011;6723;48.256;16.402;2023-12-20T11:50:01;2.20;;;2.00;;
13309;SDS011;6723;48.256;16.402;2023-12-20T11:52:29;3.20;;;2.10;;
13309;SDS011;6723;48.256;16.402;2023-12-20T11:54:55;2.10;;;1.60;;
13309;SDS011;6723;48.256;16.402;2023-12-20T11:57:21;2.40;;;2.13;;
13309;SDS011;6723;48.256;16.402;2023-12-20T11:59:47;4.53;;;1.80;;
13309;SDS011;6723;48.256;16.402;2023-12-20T12:02:13;2.10;;;1.90;;
13309;SDS011;6723;48.256;16.402;2023-12-20T12:04:43;2.83;;;1.60;;
13309;SDS011;6723;48.256;16.402;2023-12-20T12:07:09;1.67;;;1.57;;
13309;SDS011;6723;48.256;16.402;2023-12-20T12:09:35;2.27;;;1.80;;
13309;SDS011;6723;48.256;16.402;2023-12-20T12:12:01;2.10;;;1.60;;
13309;SDS011;6723;48.256;16.402;2023-12-20T12:14:27;1.77;;;1.67;;
13309;SDS011;6723;48.256;16.402;2023-12-20T12:16:53;2.17;;;1.97;;
13309;SDS011;6723;48.256;16.402;2023-12-20T12:19:21;5.93;;;2.47;;
13309;SDS011;6723;48.256;16.402;2023-12-20T12:21:47;1.97;;;1.77;;
13309;SDS011;6723;48.256;16.402;2023-12-20T12:24:13;2.90;;;1.77;;
13309;SDS011;6723;48.256;16.402;2023-12-20T12:26:39;2.07;;;1.80;;
13309;SDS011;6723;48.256;16.402;2023-12-20T12:29:07;2.13;;;1.93;;
13309;SDS011;6723;48.256;16.402;2023-12-20T12:31:33;1.67;;;1.57;;
13309;SDS011;6723;48.256;16.402;2023-12-20T12:33:58;2.13;;;1.87;;
13309;SDS011;6723;48.256;16.402;2023-12-20T12:36:24;2.63;;;1.23;;
13309;SDS011;6723;48.256;16.402;2023-12-20T12:38:50;2.17;;;1.60;;
13309;SDS011;6723;48.256;16.402;2023-12-20T12:41:16;2.10;;;1.70;;
13309;SDS011;6723;48.256;16.402;2023-12-20T12:43:41;3.30;;;1.60;;
13309;SDS011;6723;48.256;16.402;2023-12-20T12:46:07;2.13;;;1.50;;
13309;SDS011;6723;48.256;16.402;2023-12-20T12:48:33;1.57;;;1.33;;
13309;SDS011;6723;48.256;16.402;2023-12-20T12:50:59;1.70;;;1.60;;
13309;SDS011;6723;48.256;16.402;2023-12-20T12:53:25;1.60;;;1.50;;
13309;SDS011;6723;48.256;16.402;2023-12-20T12:55:54;1.70;;;1.57;;
13309;SDS011;6723;48.256;16.402;2023-12-20T12:58:20;1.40;;;1.30;;
13309;SDS011;6723;48.256;16.402;2023-12-20T13:00:46;1.87;;;1.40;;
13309;SDS011;6723;48.256;16.402;2023-12-20T13:03:11;1.97;;;1.77;;
13309;SDS011;6723;48.256;16.402;2023-12-20T13:05:37;2.63;;;1.70;;
13309;SDS011;6723;48.256;16.402;2023-12-20T13:08:03;1.27;;;1.17;;
13309;SDS011;6723;48.256;16.402;2023-12-20T13:10:30;1.97;;;1.37;;
13309;SDS011;6723;48.256;16.402;2023-12-20T13:12:55;2.13;;;1.30;;
13309;SDS011;6723;48.256;16.402;2023-12-20T13:15:21;1.63;;;1.40;;
13309;SDS011;6723;48.256;16.402;2023-12-20T13:17:47;1.50;;;1.13;;
13309;SDS011;6723;48.256;16.402;2023-12-20T13:20:13;1.73;;;1.30;;
13309;SDS011;6723;48.256;16.402;2023-12-20T13:22:39;1.57;;;1.27;;
13309;SDS011;6723;48.256;16.402;2023-12-20T13:25:04;2.23;;;1.40;;
13309;SDS011;6723;48.256;16.402;2023-12-20T13:27:31;1.30;;;1.20;;
13309;SDS011;6723;48.256;16.402;2023-12-20T13:29:58;2.07;;;1.20;;
13309;SDS011;6723;48.256;16.402;2023-12-20T13:32:24;1.30;;;1.20;;
13309;SDS011;6723;48.256;16.402;2023-12-20T13:34:50;1.10;;;1.00;;
13309;SDS011;6723;48.256;16.402;2023-12-20T13:37:15;1.33;;;1.20;;
13309;SDS011;6723;48.256;16.402;2023-12-20T13:39:41;1.10;;;1.00;;
13309;SDS011;6723;48.256;16.402;2023-12-20T13:42:07;1.20;;;1.10;;
13309;SDS011;6723;48.256;16.402;2023-12-20T13:44:33;1.97;;;1.20;;
13309;SDS011;6723;48.256;16.402;2023-12-20T13:46:59;1.23;;;1.13;;
13309;SDS011;6723;48.256;16.402;2023-12-20T13:49:26;1.23;;;1.00;;
13309;SDS011;6723;48.256;16.402;2023-12-20T13:51:53;1.43;;;1.20;;
13309;SDS011;6723;48.256;16.402;2023-12-20T13:54:23;1.93;;;1.10;;
13309;SDS011;6723;48.256;16.402;2023-12-20T13:56:49;1.20;;;1.10;;
13309;SDS011;6723;48.256;16.402;2023-12-20T13:59:15;1.50;;;1.10;;
13309;SDS011;6723;48.256;16.402;2023-12-20T14:01:41;1.40;;;1.30;;
13309;SDS011;6723;48.256;16.402;2023-12-20T14:04:07;1.90;;;1.10;;
13309;SDS011;6723;48.256;16.402;2023-12-20T14:06:33;1.30;;;1.20;;
13309;SDS011;6723;48.256;16.402;2023-12-20T14:08:58;1.43;;;1.10;;
13309;SDS011;6723;48.256;16.402;2023-12-20T14:11:28;1.37;;;1.10;;
13309;SDS011;6723;48.256;16.402;2023-12-20T14:13:54;1.30;;;1.13;;
13309;SDS011;6723;48.256;16.402;2023-12-20T14:16:26;1.40;;;1.20;;
13309;SDS011;6723;48.256;16.402;2023-12-20T14:18:52;1.53;;;1.20;;
13309;SDS011;6723;48.256;16.402;2023-12-20T14:21:22;2.27;;;1.17;;
13309;SDS011;6723;48.256;16.402;2023-12-20T14:23:49;1.40;;;1.30;;
13309;SDS011;6723;48.256;16.402;2023-12-20T14:26:15;1.27;;;1.17;;
13309;SDS011;6723;48.256;16.402;2023-12-20T14:28:41;1.27;;;1.17;;
13309;SDS011;6723;48.256;16.402;2023-12-20T14:31:07;1.27;;;1.00;;
13309;SDS011;6723;48.256;16.402;2023-12-20T14:33:36;1.10;;;1.00;;
13309;SDS011;6723;48.256;16.402;2023-12-20T14:36:06;1.13;;;1.03;;
13309;SDS011;6723;48.256;16.402;2023-12-20T14:38:32;2.97;;;1.03;;
13309;SDS011;6723;48.256;16.402;2023-12-20T14:40:58;0.97;;;0.97;;
13309;SDS011;6723;48.256;16.402;2023-12-20T14:43:24;1.60;;;1.10;;